x

South Brooks (46132) Wave Buoy

11:00pm - Mon 1st Sep 2014 All times are PDT. -7 hours from GMT.

  • Sig Wave height 7.2ft
  • Peak Period 10s
  • Wind
    4mph, 7mph gusts
  • Sea Temp 62°f
  • 空気 Temp 60°f
  • Sea Pressure 1017.1mb
  • South Brooks
  • South Brooks

More Historic Weather Station data

Upgrade to MSW Pro to gain access to the past 30 days of data for over 8000 Wavebouys and Weather Stations around the globe.

Join Pro

Comparision Forecast

View Surf forecast
   
Mon 09/01 11:00pm 7ft 10s 4 7 mph 1017.1mb 62f 60f
10:00pm 7ft 10s 4 7 mph 1017.5mb 62f 60f
9:00pm 6.5ft 10s 7 9 mph 1017.8mb 62f 61f
8:00pm 7ft 8s 7 9 mph 1017.7mb 62f 61f
7:00pm 7.5ft 9s 9 11 mph 1017.7mb 62f 61f
6:00pm 7ft 9s 9 11 mph 1018.1mb 63f 61f
5:00pm 6.5ft 8s 9 11 mph 1018.2mb 63f 61f
4:00pm 6ft 7s 9
mph
1018.3mb 63f 62f
3:00pm 6ft 9s 9 11 mph 1018.4mb 62f 61f
2:00pm 6ft 9s 9 11 mph 1018.4mb 61f 61f
1:00pm 5ft 8s 7
mph
1018.1mb 61f 61f
12:00pm 5.5ft 8s 4
mph
1018mb 60f 61f
11:00am 5ft 8s 7
mph
1017.8mb 60f 60f
10:00am 5ft 9s 2 4 mph 1017.3mb 60f 60f
9:00am 5ft 9s 4 7 mph 1017mb 59f 59f
8:00am 5ft 9s 2
mph
1016.5mb 60f 60f
7:00am 5ft 8s 7 9 mph 1016.2mb 59f 60f
6:00am 5.5ft 8s 4 7 mph 1015.8mb 59f 59f
5:00am 5ft 8s 2 4 mph 1015.5mb 59f 59f
4:00am 5ft 7s 4 7 mph 1015.6mb 58f 59f
3:00am 5.5ft 8s 7 9 mph 1015.3mb 58f 60f
2:00am 5ft 6s 11 13 mph 1015mb 58f 60f
1:00am 5ft 9s 16 18 mph 1015mb 58f 60f
12:00am 4.5ft 9s 18 20 mph 1014.9mb 59f 59f
Sun 08/31 11:00pm 4.5ft 8s 16 20 mph 1015mb 60f 60f
10:00pm 4.5ft 10s 18 22 mph 1015mb 60f 60f
9:00pm 4.5ft 9s 18 25 mph 1015mb 61f 61f
8:00pm 5ft 9s 13 18 mph 1015mb 61f 63f
7:00pm 5ft 9s 13 16 mph 1015mb 61f 62f
6:00pm 5ft 9s 13 16 mph 1015.3mb 61f 62f
5:00pm 5ft 8s 13 16 mph 1015.5mb 60f 62f
3:00pm 5ft 8s 13 16 mph 1015.9mb 61f 62f
2:00pm 5ft 8s 11 13 mph 1016.1mb 60f 62f
1:00pm 5ft 10s 9
mph
1016.4mb 60f 62f
12:00pm 4.5ft 10s 7 9 mph 1016.6mb 61f 62f
11:00am 5ft 10s 7 9 mph 1016.6mb 61f 62f
10:00am 5.5ft 8s 4
mph
1016.3mb 61f 62f
9:00am 5.5ft 10s 4 7 mph 1016.2mb 60f 62f
8:00am 6ft 10s 7 9 mph 1015.6mb 60f 61f
7:00am 6ft 10s 2 4 mph 1015.5mb 60f 60f
6:00am 6ft 10s  -  mph 1015.5mb 59f 59f
5:00am 6ft 9s  -  mph 1015.4mb 60f 59f
4:00am 6ft 11s 2
mph
1015.5mb 60f 59f
3:00am 6ft 11s  -  2 mph 1015.5mb 60f 59f
2:00am 6ft 10s 2 4 mph 1015.3mb 60f 60f
1:00am 6ft 8s 2 4 mph 1015.1mb 61f 60f
12:00am 6ft 10s 4
mph
1014.9mb 60f 60f
Sat 08/30 11:00pm 6ft 10s 4
mph
1014.7mb 60f 60f
10:00pm 6ft 11s  -  2 mph 1014.4mb 60f 60f
9:00pm 7ft 10s 2 4 mph 1014.3mb 60f 60f
8:00pm 7ft 10s 4 7 mph 1014.2mb 61f 61f
7:00pm 7.5ft 11s 4 7 mph 1013.7mb 61f 62f
6:00pm 7ft 11s 4 7 mph 1013.5mb 61f 63f
5:00pm 6.5ft 11s 4
mph
1013.5mb 62f 63f
4:00pm 7ft 11s 4 7 mph 1013.5mb 62f 62f
3:00pm 7ft 11s 4 7 mph 1013.2mb 61f 62f
2:00pm 7ft 9s 4 7 mph 1013.1mb 61f 62f
1:00pm 7.5ft 10s 4 7 mph 1012.8mb 60f 61f
12:00pm 8ft 11s 2
mph
1012.7mb 60f 61f
11:00am 7ft 11s 2 4 mph 1012.3mb 60f 60f
10:00am 8ft 10s 7 9 mph 1012.2mb 60f 59f
9:00am 7ft 10s 7
mph
1011.5mb 59f 61f
8:00am 7.5ft 10s 9 11 mph 1011.1mb 59f 60f
7:00am 8.5ft 10s 9 11 mph 1011.1mb 58f 60f
6:00am 8ft 10s 2 4 mph 1011mb 58f 59f
5:00am 8ft 11s 4 7 mph 1011mb 58f 59f
4:00am 7ft 10s 2 4 mph 1010.9mb 59f 59f
3:00am 6.5ft 9s 11 25 mph 1011.2mb 59f 59f
2:00am 5.5ft 9s 7
mph
1011.4mb 58f 60f
1:00am 6ft 9s 4 7 mph 1011.6mb 58f 60f
12:00am 6ft 9s 11 16 mph 1012mb 59f 61f
Fri 08/29 11:00pm 6ft 8s 11 16 mph 1012mb 60f 61f
10:00pm 6ft 8s 7 9 mph 1012.1mb 60f 61f
9:00pm 5.5ft 6s 4 7 mph 1012.4mb 60f 60f
8:00pm 6ft 8s 7
mph
1012.2mb 60f 60f
7:00pm 6ft 8s 7 9 mph 1012.4mb 60f 61f
6:00pm 5ft 8s 9 13 mph 1012.3mb 60f 60f
5:00pm 5ft 15s 9 11 mph 1012.4mb 59f 60f
4:00pm 4.5ft 15s 16 20 mph 1012.3mb 59f 60f
3:00pm 4ft 16s 16 20 mph 1012.4mb 59f 60f
2:00pm 4.5ft 5s 18 20 mph 1012.5mb 59f 60f
1:00pm 5ft 15s 20 22 mph 1012.6mb 59f 58f
12:00pm 4.5ft 4s 20 25 mph 1012.8mb 59f 58f
11:00am 4.5ft 14s 22 25 mph 1012.9mb 59f 57f
10:00am 4.5ft 15s 18 22 mph 1013.1mb 59f 58f
9:00am 4ft 9s 18 20 mph 1012.9mb 59f 58f
8:00am 3.5ft 8s 16 20 mph 1013.1mb 59f 59f